This is the latest recevied weather packets stored in our database for station/object N7AWM. If no packets are shown the sender has not sent any weather packets the latest 10 day(s).
| Time | Temp. | Humidity | Pressure | Rain* | Wind** | Luminosity | Snow |
|---|---|---|---|---|---|---|---|
| 1777880527 | 18.89° C | 39% | 1004.8 hPa | 0 mm | - | - | - |
| 1777879688 | 20.56° C | 38% | 1004.9 hPa | 0 mm | - | - | - |
| 1777878848 | 20.56° C | 37% | 1004.9 hPa | 0 mm | - | - | - |
| 1777878008 | 21.67° C | 37% | 1004.9 hPa | 0 mm | - | - | - |
| 1777877168 | 21.67° C | 36% | 1004.8 hPa | 0 mm | - | - | - |
| 1777876328 | 21.67° C | 35% | 1005 hPa | 0 mm | - | - | - |
| 1777875488 | 20.56° C | 37% | 1005 hPa | 0 mm | - | - | - |
| 1777874648 | 20° C | 38% | 1005.1 hPa | 0 mm | - | - | - |
| 1777873808 | 20.56° C | 37% | 1005.1 hPa | 0 mm | - | - | - |
| 1777872968 | 20° C | 40% | 1005.2 hPa | 0 mm | - | - | - |
| 1777872128 | 19.44° C | 41% | 1005.3 hPa | 0 mm | - | - | - |
| 1777871288 | 20.56° C | 41% | 1005.3 hPa | 0 mm | - | - | - |
| 1777870448 | 22.22° C | 37% | 1005.1 hPa | 0 mm | - | - | - |
| 1777869608 | 22.22° C | 36% | 1005.1 hPa | 0 mm | - | - | - |
| 1777868768 | 21.11° C | 40% | 1005 hPa | 0 mm | - | - | - |
| 1777867928 | 21.11° C | 40% | 1004.9 hPa | 0 mm | - | - | - |
| 1777867088 | 21.11° C | 41% | 1004.8 hPa | 0 mm | - | - | - |
| 1777866249 | 21.11° C | 41% | 1004.7 hPa | 0 mm | - | - | - |
| 1777865409 | 21.11° C | 42% | 1004.6 hPa | 0 mm | - | - | - |
| 1777864569 | 20.56° C | 44% | 1004.5 hPa | 0 mm | - | - | - |
| 1777863729 | 19.44° C | 48% | 1004.5 hPa | 0 mm | - | - | - |
| 1777862889 | 21.67° C | 45% | 1004.5 hPa | 0 mm | - | - | - |
| 1777862049 | 23.89° C | 40% | 1004.4 hPa | 0 mm | - | - | - |
| 1777861209 | 25° C | 38% | 1004.5 hPa | 0 mm | - | - | - |
| 1777860369 | 27.22° C | 37% | 1004.6 hPa | 0 mm | - | - | - |
* Rain latest hour (hover to see other rain measurements)
** Current wind speed in m/s (hover to see current wind gust speed)